Weather History for Camden, AR

Change the Weather History Date:

Wednesday, February 13, 2013

  Actual Average Record
Temperature  
Mean Temperature 45 °F -  
Max Temperature 55 °F 55 °F 83 °F (1962)
Min Temperature 35 °F 32 °F 13 °F (1988)
Degree Days  
Heating Degree Days 20    
Moisture  
Dew Point 37 °F    
Average Humidity 77    
Maximum Humidity 93    
Minimum Humidity 47    
Precipitation  
Precipitation 0.00 in - - ()
Sea Level Pressure  
Sea Level Pressure 30.02 in    
Wind  
Wind Speed 6 mph (WNW)    
Max Wind Speed 10 mph    
Max Gust Speed -    
Visibility 9 miles    
Events Rain    
Averages and records for this station are not official NWS values.
T = Trace of Precipitation, MM = Missing Value Source: NWS Daily Summary

Daily Weather History Graph

Daily Weather History Graph

Search for Another Location

Airport:

Trip Planner

Search our weather history database for the weather conditions in past years. The results will help you decide how hot, cold, wet, or windy it might be!

Date:

Astronomy

Feb. 13, 2013 Rise Set
Actual Time 6:56 AM CST 5:53 PM CST
Civil Twilight 6:31 AM CST 6:19 PM CST
Nautical Twilight 6:02 AM CST 6:48 PM CST
Astronomical Twilight 5:33 AM CST 7:17 PM CST
Moon 8:40 AM CST (2/13) 9:42 PM CST (2/13)
Length of Visible Light 11h 48m
Length of Day
10h 57m
Waxing Crescent, 14% of the Moon is Illuminated
Feb 13
Waxing Crescent
Feb 17
First Quarter
Feb 25
Full
Mar 4
Last Quarter
Mar 11
New

Hourly Weather History & Observations

Time (CST) Temp. Windchill Dew Point Humidity Pressure Visibility Wind Dir Wind Speed Gust Speed Precip Events Conditions
12:15 AM 42.8 °F 39.3 °F 41.0 °F 93% 29.89 in 5.0 mi NW 5.8 mph - N/A   Overcast
12:35 AM 42.8 °F 40.1 °F 41.0 °F 93% 29.89 in 3.0 mi WNW 4.6 mph - N/A Rain Light Rain
1:15 AM 42.8 °F 38.6 °F 41.0 °F 93% 29.90 in 3.0 mi WNW 6.9 mph - N/A Rain Light Rain
1:35 AM 42.8 °F 39.3 °F 41.0 °F 93% 29.90 in 5.0 mi NW 5.8 mph - N/A   Overcast
1:55 AM 42.8 °F 38.0 °F 41.0 °F 93% 29.90 in 2.5 mi NNW 8.1 mph - N/A Rain Light Rain
2:15 AM 42.8 °F 39.3 °F 41.0 °F 93% 29.91 in 3.0 mi NW 5.8 mph - N/A Rain Light Rain
2:35 AM 42.8 °F 38.6 °F 41.0 °F 93% 29.91 in 3.0 mi NNW 6.9 mph - N/A Rain Light Rain
2:55 AM 42.8 °F 38.0 °F 39.2 °F 87% 29.92 in 7.0 mi NW 8.1 mph - N/A   Overcast
3:15 AM 42.8 °F 38.0 °F 39.2 °F 87% 29.92 in 10.0 mi NW 8.1 mph - N/A   Overcast
3:35 AM 41.0 °F 35.8 °F 39.2 °F 93% 29.92 in 10.0 mi NW 8.1 mph - N/A   Mostly Cloudy
3:55 AM 41.0 °F 36.4 °F 39.2 °F 93% 29.93 in 10.0 mi NW 6.9 mph - N/A   Overcast
4:15 AM 41.0 °F 38.0 °F 39.2 °F 93% 29.93 in 10.0 mi NW 4.6 mph - N/A   Overcast
4:35 AM 41.0 °F 37.1 °F 39.2 °F 93% 29.95 in 10.0 mi WNW 5.8 mph - N/A   Overcast
4:55 AM 41.0 °F 35.2 °F 39.2 °F 93% 29.96 in 10.0 mi NNW 9.2 mph - N/A   Overcast
5:15 AM 41.0 °F 39.0 °F 37.4 °F 87% 29.96 in 10.0 mi WNW 3.5 mph - N/A   Overcast
5:35 AM 41.0 °F 36.4 °F 39.2 °F 93% 29.98 in 10.0 mi WNW 6.9 mph - N/A   Overcast
5:55 AM 41.0 °F 37.1 °F 37.4 °F 87% 29.99 in 10.0 mi NW 5.8 mph - N/A   Overcast
6:15 AM 41.0 °F 39.0 °F 37.4 °F 87% 30.00 in 10.0 mi NW 3.5 mph - N/A   Overcast
6:35 AM 41.0 °F 39.0 °F 37.4 °F 87% 30.01 in 10.0 mi WNW 3.5 mph - N/A   Overcast
6:55 AM 39.2 °F 35.9 °F 37.4 °F 93% 30.02 in 10.0 mi WNW 4.6 mph - N/A   Mostly Cloudy
7:15 AM 41.0 °F 38.0 °F 37.4 °F 87% 30.02 in 10.0 mi NW 4.6 mph - N/A   Overcast
7:35 AM 41.0 °F 39.0 °F 37.4 °F 87% 30.02 in 10.0 mi West 3.5 mph - N/A   Overcast
7:55 AM 39.2 °F 37.0 °F 37.4 °F 93% 30.03 in 10.0 mi WNW 3.5 mph - N/A   Mostly Cloudy
8:15 AM 41.0 °F 37.1 °F 37.4 °F 87% 30.05 in 10.0 mi WNW 5.8 mph - N/A   Overcast
8:35 AM 41.0 °F 38.0 °F 37.4 °F 87% 30.06 in 10.0 mi NW 4.6 mph - N/A   Overcast
8:55 AM 41.0 °F 39.0 °F 37.4 °F 87% 30.07 in 10.0 mi NW 3.5 mph - N/A   Overcast
9:15 AM 41.0 °F 38.0 °F 37.4 °F 87% 30.08 in 10.0 mi West 4.6 mph - N/A   Overcast
9:35 AM 42.8 °F 39.3 °F 37.4 °F 81% 30.09 in 10.0 mi WNW 5.8 mph - N/A   Overcast
10:15 AM 42.8 °F 38.6 °F 37.4 °F 81% 30.11 in 10.0 mi NW 6.9 mph - N/A   Overcast
10:35 AM 44.6 °F 40.2 °F 35.6 °F 71% 30.11 in 10.0 mi NW 8.1 mph - N/A   Overcast
10:55 AM 44.6 °F 41.4 °F 35.6 °F 71% 30.10 in 10.0 mi WNW 5.8 mph - N/A   Overcast
11:15 AM 46.4 °F 41.9 °F 35.6 °F 66% 30.09 in 10.0 mi North 9.2 mph - N/A   Overcast
11:35 AM 48.2 °F - 35.6 °F 62% 30.10 in 10.0 mi NNW 5.8 mph - N/A   Mostly Cloudy
11:55 AM 48.2 °F - 35.6 °F 62% 30.09 in 10.0 mi NW 6.9 mph - N/A   Overcast
12:15 PM 48.2 °F - 35.6 °F 62% 30.08 in 10.0 mi WNW 6.9 mph - N/A   Overcast
12:35 PM 51.8 °F - 35.6 °F 54% 30.07 in 10.0 mi NNW 6.9 mph - N/A   Mostly Cloudy
12:55 PM 51.8 °F - 35.6 °F 54% 30.06 in 10.0 mi NNW 5.8 mph - N/A   Scattered Clouds
1:15 PM 51.8 °F - 35.6 °F 54% 30.05 in 10.0 mi North 5.8 mph - N/A   Mostly Cloudy
1:35 PM 53.6 °F - 35.6 °F 51% 30.04 in 10.0 mi NNW 8.1 mph - N/A   Mostly Cloudy
1:55 PM 53.6 °F - 35.6 °F 51% 30.03 in 10.0 mi WNW 5.8 mph - N/A   Mostly Cloudy
2:15 PM 50.0 °F - 35.6 °F 58% 30.03 in 10.0 mi NNW 10.4 mph - N/A   Mostly Cloudy
2:35 PM 50.0 °F - 35.6 °F 58% 30.03 in 10.0 mi West 6.9 mph - N/A   Overcast
2:55 PM 50.0 °F - 35.6 °F 58% 30.03 in 10.0 mi NW 6.9 mph - N/A   Overcast
3:15 PM 55.4 °F - 35.6 °F 47% 30.03 in 10.0 mi West 5.8 mph - N/A   Mostly Cloudy
3:35 PM 50.0 °F - 35.6 °F 58% 30.03 in 10.0 mi NNW 5.8 mph - N/A   Scattered Clouds
3:55 PM 55.4 °F - 35.6 °F 47% 30.02 in 10.0 mi West 5.8 mph - N/A   Mostly Cloudy
4:15 PM 53.6 °F - 35.6 °F 51% 30.02 in 10.0 mi NNW 6.9 mph - N/A   Mostly Cloudy
4:35 PM 53.6 °F - 35.6 °F 51% 30.02 in 10.0 mi NW 6.9 mph - N/A   Partly Cloudy
4:55 PM 51.8 °F - 33.8 °F 50% 30.02 in 10.0 mi West 3.5 mph - N/A   Clear
5:15 PM 51.8 °F - 33.8 °F 50% 30.02 in 10.0 mi West 6.9 mph - N/A   Scattered Clouds
5:35 PM 50.0 °F - 35.6 °F 58% 30.03 in 10.0 mi West 5.8 mph - N/A   Partly Cloudy
5:55 PM 48.2 °F - 33.8 °F 58% 30.03 in 10.0 mi WSW 3.5 mph - N/A   Clear
6:15 PM 46.4 °F 45.2 °F 33.8 °F 62% 30.03 in 10.0 mi SW 3.5 mph - N/A   Clear
6:35 PM 44.6 °F 43.1 °F 35.6 °F 71% 30.03 in 10.0 mi SSW 3.5 mph - N/A   Clear
6:55 PM 44.6 °F 43.1 °F 35.6 °F 71% 30.03 in 10.0 mi SSW 3.5 mph - N/A   Clear
7:15 PM 41.0 °F - 35.6 °F 81% 30.04 in 10.0 mi Calm Calm - N/A   Clear
7:35 PM 41.0 °F - 37.4 °F 87% 30.04 in 10.0 mi Calm Calm - N/A   Clear
7:55 PM 41.0 °F 38.0 °F 37.4 °F 87% 30.04 in 10.0 mi SSW 4.6 mph - N/A   Clear
8:15 PM 39.2 °F 37.0 °F 35.6 °F 87% 30.05 in 10.0 mi SSW 3.5 mph - N/A   Clear
8:35 PM 39.2 °F 35.9 °F 35.6 °F 87% 30.05 in 10.0 mi SW 4.6 mph - N/A   Clear
8:55 PM 39.2 °F 35.9 °F 35.6 °F 87% 30.06 in 10.0 mi SSW 4.6 mph - N/A   Clear
9:15 PM 39.2 °F 37.0 °F 35.6 °F 87% 30.06 in 10.0 mi SSW 3.5 mph - N/A   Clear
9:35 PM 39.2 °F 37.0 °F 35.6 °F 87% 30.07 in 10.0 mi SSW 3.5 mph - N/A   Clear
9:55 PM 39.2 °F 37.0 °F 35.6 °F 87% 30.07 in 10.0 mi SSW 3.5 mph - N/A   Clear
10:15 PM 37.4 °F - 33.8 °F 87% 30.07 in 10.0 mi Calm Calm - N/A   Clear
10:35 PM 37.4 °F - 33.8 °F 87% 30.07 in 10.0 mi Calm Calm - N/A   Clear
10:55 PM 35.6 °F - 32.0 °F 87% 30.08 in 10.0 mi Calm Calm - N/A   Clear
11:15 PM 35.6 °F - 33.8 °F 93% 30.07 in 10.0 mi Calm Calm - N/A   Clear
11:35 PM 35.6 °F 32.8 °F 33.8 °F 93% 30.08 in 10.0 mi South 3.5 mph - N/A   Clear
11:55 PM 35.6 °F 32.8 °F 33.8 °F 93% 30.08 in 10.0 mi South 3.5 mph - N/A   Clear